createdAt,value
2022-12-03T00:03:55.083Z,1.11
2022-12-03T00:08:58.214Z,1.10
2022-12-03T00:14:01.220Z,1.11
2022-12-03T00:19:04.656Z,1.09
2022-12-03T00:24:08.746Z,1.08
2022-12-03T00:29:11.647Z,1.09
2022-12-03T00:34:14.518Z,1.10
2022-12-03T00:39:17.492Z,1.11
2022-12-03T00:44:20.383Z,1.13
2022-12-03T00:49:23.089Z,1.13
2022-12-03T00:54:31.544Z,1.12
2022-12-03T00:59:34.934Z,1.11
2022-12-03T01:04:38.526Z,1.11
2022-12-03T01:09:41.900Z,1.12
2022-12-03T01:14:44.982Z,1.12
2022-12-03T01:19:48.791Z,1.14
2022-12-03T01:24:52.130Z,1.15
2022-12-03T01:29:55.181Z,1.11
2022-12-03T01:34:58.013Z,1.11
2022-12-03T01:40:01.050Z,1.10
2022-12-03T01:45:05.116Z,1.09
2022-12-03T01:50:35.033Z,1.10
2022-12-03T01:55:38.164Z,1.10
2022-12-03T02:00:41.475Z,1.09
2022-12-03T02:05:44.507Z,1.07
2022-12-03T02:10:47.435Z,1.06
2022-12-03T02:15:50.532Z,1.08
2022-12-03T02:21:01.760Z,1.04
2022-12-03T02:26:04.887Z,1.03
2022-12-03T02:31:08.193Z,1.05
2022-12-03T02:36:12.435Z,1.06
2022-12-03T02:41:37.575Z,1.05
2022-12-03T02:46:41.026Z,1.05
2022-12-03T02:51:43.967Z,1.04
2022-12-03T02:56:46.896Z,1.04
2022-12-03T03:01:50.012Z,1.04
2022-12-03T03:06:53.155Z,1.05
2022-12-03T03:11:56.070Z,1.03
2022-12-03T03:16:59.041Z,1.04
2022-12-03T03:22:02.491Z,1.07
2022-12-03T03:27:06.087Z,1.09
2022-12-03T03:32:09.075Z,1.11
2022-12-03T03:37:12.209Z,1.11
2022-12-03T03:42:15.225Z,1.13
2022-12-03T03:47:19.385Z,1.14
2022-12-03T03:52:22.826Z,1.15
2022-12-03T03:57:25.904Z,1.15
2022-12-03T04:02:28.908Z,1.13
2022-12-03T04:07:31.941Z,1.14
2022-12-03T04:12:53.072Z,1.13
2022-12-03T04:18:14.293Z,1.10
2022-12-03T04:23:17.276Z,1.14
2022-12-03T04:28:38.697Z,1.14
2022-12-03T04:34:10.700Z,1.15
2022-12-03T04:39:14.092Z,1.16
2022-12-03T04:44:35.232Z,1.18
2022-12-03T04:49:42.291Z,1.19
2022-12-03T04:54:46.017Z,1.20
2022-12-03T04:59:48.915Z,1.23
2022-12-03T05:04:52.186Z,1.24
2022-12-03T05:09:55.299Z,1.28
2022-12-03T05:14:58.222Z,1.29
2022-12-03T05:20:19.554Z,1.29
2022-12-03T05:25:23.105Z,1.28
2022-12-03T05:30:26.066Z,1.29
2022-12-03T05:35:29.242Z,1.29
2022-12-03T05:40:32.202Z,1.27
2022-12-03T05:45:40.831Z,1.27
2022-12-03T05:50:45.804Z,1.27
2022-12-03T05:55:48.779Z,1.30
2022-12-03T06:00:51.712Z,1.32
2022-12-03T06:05:54.692Z,1.36
2022-12-03T06:10:57.606Z,1.38
2022-12-03T06:16:00.497Z,1.41
2022-12-03T06:21:03.419Z,1.43
2022-12-03T06:26:06.262Z,1.44
2022-12-03T06:31:09.332Z,1.44
2022-12-03T06:36:12.743Z,1.47
2022-12-03T06:41:15.563Z,1.49
2022-12-03T06:46:18.641Z,1.50
2022-12-03T06:51:21.669Z,1.52
2022-12-03T06:56:25.162Z,1.54
2022-12-03T07:01:29.568Z,1.55
2022-12-03T07:06:32.441Z,1.60
2022-12-03T07:11:40.516Z,1.63
2022-12-03T07:16:43.767Z,1.66
2022-12-03T07:21:46.774Z,1.70
2022-12-03T07:26:50.218Z,1.71
2022-12-03T07:31:53.353Z,1.73
2022-12-03T07:36:56.398Z,1.79
2022-12-03T07:41:59.431Z,1.82
2022-12-03T07:47:02.348Z,1.85
2022-12-03T07:52:07.112Z,1.87
2022-12-03T07:57:10.023Z,1.87
2022-12-03T08:02:16.777Z,1.90
2022-12-03T08:07:24.218Z,1.93
2022-12-03T08:12:41.970Z,1.97
2022-12-03T08:17:47.861Z,2.02
2022-12-03T08:22:53.570Z,2.02
2022-12-03T08:28:11.101Z,2.09
2022-12-03T08:33:35.230Z,2.16
2022-12-03T08:38:38.367Z,2.19
2022-12-03T08:43:43.868Z,2.19
2022-12-03T08:48:49.431Z,2.23
2022-12-03T08:54:01.861Z,2.34
2022-12-03T08:59:13.907Z,2.52
2022-12-03T09:04:55.950Z,2.68
2022-12-03T09:09:59.110Z,2.91
2022-12-03T09:15:01.834Z,3.13
2022-12-03T09:20:06.619Z,3.25
2022-12-03T09:25:09.926Z,3.41
2022-12-03T09:30:13.655Z,3.57
2022-12-03T09:35:17.141Z,3.62
2022-12-03T09:40:20.954Z,3.68
2022-12-03T09:45:23.924Z,3.82
2022-12-03T09:50:27.694Z,3.87
2022-12-03T09:55:31.270Z,3.89
2022-12-03T10:00:34.283Z,4.00
2022-12-03T10:05:37.376Z,4.01
2022-12-03T10:10:41.945Z,4.09
2022-12-03T10:15:44.902Z,4.18
2022-12-03T10:20:48.995Z,4.32
2022-12-03T10:26:02.948Z,4.48
2022-12-03T10:31:11.800Z,4.67
2022-12-03T10:36:19.838Z,4.86
2022-12-03T10:41:28.877Z,4.96
2022-12-03T10:46:31.805Z,5.08
2022-12-03T10:51:35.164Z,5.17
2022-12-03T10:56:38.108Z,5.26
2022-12-03T11:01:41.549Z,5.33
2022-12-03T11:06:44.472Z,5.32
2022-12-03T11:11:47.808Z,5.27
2022-12-03T11:17:13.569Z,5.30
2022-12-03T11:22:24.771Z,5.47
2022-12-03T11:27:27.677Z,5.63
2022-12-03T11:32:43.884Z,5.61
2022-12-03T11:37:46.799Z,5.49
2022-12-03T11:42:49.860Z,5.40
2022-12-03T11:47:58.801Z,5.52
2022-12-03T11:53:12.057Z,5.74
2022-12-03T11:58:29.607Z,5.90
2022-12-03T12:03:50.970Z,5.92
2022-12-03T12:09:00.283Z,5.95
2022-12-03T12:14:09.176Z,5.99
2022-12-03T12:19:49.712Z,5.99
2022-12-03T12:25:02.537Z,5.99
2022-12-03T12:30:18.545Z,5.99
2022-12-03T12:35:28.111Z,5.95
2022-12-03T12:40:33.925Z,5.89
2022-12-03T12:45:41.499Z,5.81
2022-12-03T12:50:48.497Z,5.73
2022-12-03T12:56:01.736Z,5.65
2022-12-03T13:01:11.448Z,5.56
2022-12-03T13:06:16.334Z,5.48
2022-12-03T13:11:25.154Z,5.41
2022-12-03T13:16:32.849Z,5.37
2022-12-03T13:21:43.139Z,5.36
2022-12-03T13:26:46.079Z,5.37
2022-12-03T13:32:02.241Z,5.42
2022-12-03T13:37:22.323Z,5.43
2022-12-03T13:42:40.642Z,5.41
2022-12-03T13:47:55.768Z,5.38
2022-12-03T13:53:02.521Z,5.36
2022-12-03T13:58:05.617Z,5.34
2022-12-03T14:03:08.927Z,5.30
2022-12-03T14:08:12.025Z,5.28
2022-12-03T14:13:14.892Z,5.27
2022-12-03T14:18:32.874Z,5.24
2022-12-03T14:23:35.758Z,5.21
2022-12-03T14:28:38.742Z,5.19
2022-12-03T14:33:41.736Z,5.14
2022-12-03T14:38:44.795Z,5.08
2022-12-03T14:43:47.649Z,5.07
2022-12-03T14:48:50.533Z,5.01
2022-12-03T14:53:53.543Z,4.98
2022-12-03T14:58:56.446Z,4.94
2022-12-03T15:03:59.411Z,4.91
2022-12-03T15:09:02.708Z,4.86
2022-12-03T15:14:07.148Z,4.82
2022-12-03T15:19:10.263Z,4.78
2022-12-03T15:24:13.267Z,4.77
2022-12-03T15:29:16.122Z,4.72
2022-12-03T15:34:22.936Z,4.70
2022-12-03T15:39:26.789Z,4.69
2022-12-03T15:44:29.660Z,4.62
2022-12-03T15:59:38.894Z,4.16
2022-12-03T16:04:41.825Z,3.99
2022-12-03T16:09:44.988Z,3.80
2022-12-03T16:14:47.843Z,3.58
2022-12-03T16:19:50.857Z,3.38
2022-12-03T16:24:53.905Z,3.19
2022-12-03T16:29:57.408Z,2.99
2022-12-03T16:35:00.499Z,2.81
2022-12-03T16:40:04.196Z,2.65
2022-12-03T16:45:08.278Z,2.47
2022-12-03T16:50:17.975Z,2.34
2022-12-03T16:55:24.239Z,2.19
2022-12-03T17:00:27.394Z,2.07
2022-12-03T17:05:30.299Z,1.96
2022-12-03T17:10:33.839Z,1.89
2022-12-03T17:15:36.946Z,1.81
2022-12-03T17:20:39.839Z,1.76
2022-12-03T17:25:42.528Z,1.71
2022-12-03T17:30:45.882Z,1.68
2022-12-03T17:35:49.091Z,1.67
2022-12-03T17:40:52.411Z,1.62
2022-12-03T17:45:55.358Z,1.58
2022-12-03T17:50:58.307Z,1.54
2022-12-03T17:56:01.214Z,1.49
2022-12-03T18:01:05.881Z,1.44
2022-12-03T18:06:08.824Z,1.36
2022-12-03T18:11:11.699Z,1.28
2022-12-03T18:16:15.505Z,1.20
2022-12-03T18:21:18.513Z,1.14
2022-12-03T18:26:21.765Z,1.05
2022-12-03T18:31:24.702Z,1.00
2022-12-03T18:36:33.725Z,0.94
2022-12-03T18:41:36.813Z,0.89
2022-12-03T18:46:56.090Z,0.84
2022-12-03T18:51:59.739Z,0.85
2022-12-03T18:57:02.923Z,0.82
2022-12-03T19:02:07.979Z,0.78
2022-12-03T19:07:13.304Z,0.75
2022-12-03T19:12:16.781Z,0.73
2022-12-03T19:17:19.718Z,0.72
2022-12-03T19:22:22.888Z,0.70
2022-12-03T19:27:25.795Z,0.69
2022-12-03T19:32:28.820Z,0.68
2022-12-03T19:37:36.353Z,0.66
2022-12-03T19:42:40.884Z,0.66
2022-12-03T19:47:43.748Z,0.65
2022-12-03T19:52:48.911Z,0.64
2022-12-03T19:57:51.882Z,0.64
2022-12-03T20:02:54.656Z,0.62
2022-12-03T20:07:57.683Z,0.60
2022-12-03T20:13:01.012Z,0.62
2022-12-03T20:18:04.273Z,0.62
2022-12-03T20:23:07.102Z,0.62
2022-12-03T20:28:09.923Z,0.66
2022-12-03T20:33:13.752Z,0.73
2022-12-03T20:38:16.625Z,0.80
2022-12-03T20:43:20.157Z,0.84
2022-12-03T20:48:23.191Z,0.85
2022-12-03T20:53:26.018Z,0.87
2022-12-03T20:58:31.099Z,0.88
2022-12-03T21:03:34.251Z,0.91
2022-12-03T21:08:41.575Z,0.94
2022-12-03T21:13:46.673Z,0.93
2022-12-03T21:18:49.868Z,0.90
2022-12-03T21:23:52.918Z,0.89
2022-12-03T21:28:55.896Z,0.90
2022-12-03T21:33:59.253Z,0.95
2022-12-03T21:39:02.221Z,0.97
2022-12-03T21:44:05.729Z,1.02
2022-12-03T21:49:08.685Z,1.05
2022-12-03T21:54:12.138Z,1.03
2022-12-03T21:59:14.990Z,1.05
2022-12-03T22:04:17.883Z,1.03
2022-12-03T22:09:26.300Z,1.05
2022-12-03T22:14:30.638Z,1.07
2022-12-03T22:19:33.620Z,1.09
2022-12-03T22:24:36.713Z,1.13
2022-12-03T22:29:39.699Z,1.18
2022-12-03T22:34:42.704Z,1.27
2022-12-03T22:39:45.733Z,1.35
2022-12-03T22:44:48.570Z,1.43
2022-12-03T22:49:51.418Z,1.48
2022-12-03T22:54:54.313Z,1.53
2022-12-03T22:59:57.434Z,1.56
2022-12-03T23:05:00.452Z,1.60
2022-12-03T23:10:03.528Z,1.66
2022-12-03T23:15:07.815Z,1.72
2022-12-03T23:20:11.544Z,1.79
2022-12-03T23:25:15.524Z,1.86
2022-12-03T23:30:18.559Z,1.95
2022-12-03T23:35:21.493Z,2.03
2022-12-03T23:40:24.528Z,2.11
2022-12-03T23:45:27.978Z,2.13
2022-12-03T23:50:31.354Z,2.12
2022-12-03T23:55:34.244Z,2.06
